Weather History for St. Joseph, MO

Change the Weather History Date:

Thursday, February 21, 2013

  Actual Average Record
Temperature  
Mean Temperature 22 °F 34 °F  
Max Temperature 24 °F 44 °F 74 °F (1922)
Min Temperature 20 °F 23 °F -1 °F (1978)
Degree Days  
Heating Degree Days 43 31  
Month to date heating degree days 677 714  
Since 1 July heating degree days 3838 4097  
Cooling Degree Days 0 0  
Month to date cooling degree days 0 0  
Year to date cooling degree days 0 0  
Moisture  
Dew Point 18 °F    
Average Humidity 71    
Maximum Humidity 91    
Minimum Humidity 50    
Precipitation  
Precipitation 0.29 in 0.03 in 0.72 in (1997)
Month to date precipitation 0.37 0.66  
Year to date precipitation 1.01 1.22  
Sea Level Pressure  
Sea Level Pressure 29.93 in    
Wind  
Wind Speed 12 mph (ENE)    
Max Wind Speed 24 mph    
Max Gust Speed 31 mph    
Visibility 2 miles    
Events Fog , Rain , Snow    
T = Trace of Precipitation, MM = Missing Value Source: NWS Daily Summary

Daily Weather History Graph

Daily Weather History Graph

Search for Another Location

Airport:

Trip Planner

Search our weather history database for the weather conditions in past years. The results will help you decide how hot, cold, wet, or windy it might be!

Date:

Astronomy

Feb. 21, 2013 Rise Set
Actual Time 7:03 AM CST 6:03 PM CST
Civil Twilight 6:36 AM CST 6:30 PM CST
Nautical Twilight 6:05 AM CST 7:01 PM CST
Astronomical Twilight 5:33 AM CST 7:33 PM CST
Moon 2:19 PM CST (2/21) 4:08 AM CST (2/21)
Length of Visible Light 11h 54m
Length of Day
10h 59m
Waxing Gibbous, 84% of the Moon is Illuminated
Feb 21
Waxing Gibbous
Feb 25
Full
Mar 4
Last Quarter
Mar 11
New
Mar 19
First Quarter

Hourly Weather History & Observations

Time (CST) Temp. Windchill Dew Point Humidity Pressure Visibility Wind Dir Wind Speed Gust Speed Precip Events Conditions
12:53 AM 23.0 °F 11.7 °F 10.0 °F 58% 30.26 in 10.0 mi East 11.5 mph - N/A   Overcast
1:53 AM 21.9 °F 9.8 °F 10.0 °F 60% 30.23 in 10.0 mi East 12.7 mph 19.6 mph N/A   Mostly Cloudy
2:53 AM 21.0 °F 8.6 °F 10.0 °F 63% 30.20 in 10.0 mi ENE 12.7 mph 21.9 mph N/A   Mostly Cloudy
3:53 AM 21.0 °F 7.6 °F 10.0 °F 63% 30.18 in 10.0 mi East 15.0 mph - N/A   Overcast
5:53 AM 21.0 °F 8.6 °F 10.9 °F 65% 30.12 in 10.0 mi East 12.7 mph 20.7 mph N/A   Overcast
6:53 AM 21.9 °F 9.2 °F 10.9 °F 63% 30.12 in 10.0 mi East 13.8 mph 20.7 mph N/A   Overcast
8:13 AM 21.2 °F 8.3 °F 12.2 °F 68% 30.10 in 2.0 mi East 13.8 mph - 0.00 in Snow Light Snow
8:21 AM 21.2 °F 8.3 °F 14.0 °F 74% 30.09 in 1.0 mi East 13.8 mph - 0.00 in Snow Light Snow
8:25 AM 21.2 °F 8.3 °F 15.8 °F 80% 30.09 in 0.5 mi East 13.8 mph 20.7 mph 0.00 in Snow Snow
8:36 AM 19.4 °F 7.2 °F 15.8 °F 86% 30.08 in 0.2 mi East 11.5 mph - 0.01 in Fog , Snow Heavy Snow
8:45 AM 19.4 °F 7.9 °F 15.8 °F 86% 30.09 in 0.2 mi ENE 10.4 mph - 0.02 in Fog , Snow Snow
8:53 AM 19.9 °F 10.1 °F 16.0 °F 85% 30.13 in 0.2 mi East 8.1 mph - 0.03 in Fog , Snow Heavy Snow
9:21 AM 19.4 °F 5.5 °F 17.6 °F 93% 30.06 in 0.2 mi East 15.0 mph 21.9 mph 0.04 in Fog , Snow Heavy Snow
9:31 AM 19.4 °F 6.6 °F 17.6 °F 93% 30.07 in 0.2 mi East 12.7 mph 20.7 mph 0.06 in Fog , Snow Heavy Snow
9:53 AM 19.9 °F 6.2 °F 17.1 °F 89% 30.06 in 0.2 mi ENE 15.0 mph - 0.09 in Fog , Snow Snow
10:27 AM 19.4 °F 4.5 °F 15.8 °F 86% 29.99 in 0.2 mi ENE 17.3 mph - 0.04 in Fog , Snow Snow
10:45 AM 21.2 °F 6.8 °F 17.6 °F 86% 29.97 in 0.2 mi ENE 17.3 mph 27.6 mph 0.05 in Fog , Snow Snow
10:53 AM 21.0 °F 5.7 °F 17.1 °F 85% 29.99 in 0.2 mi ENE 19.6 mph 26.5 mph 0.06 in Fog , Snow Snow
11:02 AM 21.2 °F 8.9 °F 17.6 °F 86% 29.97 in 0.2 mi East 12.7 mph 24.2 mph 0.00 in Fog , Snow Snow
11:23 AM 21.2 °F 4.9 °F 17.6 °F 86% 29.95 in 0.5 mi East 23.0 mph 27.6 mph 0.01 in Snow Snow
11:37 AM 23.0 °F 7.6 °F 17.6 °F 80% 29.93 in 1.0 mi ENE 21.9 mph 29.9 mph 0.02 in Snow Light Snow
11:44 AM 23.0 °F 8.0 °F 17.6 °F 80% 29.92 in 1.2 mi East 20.7 mph 31.1 mph 0.02 in Snow Light Snow
11:53 AM 23.0 °F 9.2 °F 18.0 °F 81% 29.96 in 1.5 mi East 17.3 mph 28.8 mph 0.02 in Snow Light Snow
12:16 PM 23.0 °F 8.0 °F 17.6 °F 80% 29.91 in 0.5 mi East 20.7 mph 29.9 mph 0.00 in Snow Snow
12:26 PM 24.8 °F 10.7 °F 17.6 °F 74% 29.90 in 1.0 mi East 19.6 mph 29.9 mph 0.00 in Snow Light Snow
12:43 PM 24.8 °F 10.3 °F 17.6 °F 74% 29.89 in 0.8 mi East 20.7 mph 31.1 mph 0.00 in Snow Light Snow
12:53 PM 24.1 °F 11.5 °F 18.0 °F 77% 29.91 in 0.8 mi East 15.0 mph 26.5 mph 0.01 in Snow Light Snow
1:06 PM 24.8 °F 11.5 °F 17.6 °F 74% 29.88 in 1.0 mi East 17.3 mph 25.3 mph 0.00 in Snow Light Snow
1:38 PM 24.8 °F 11.5 °F 19.4 °F 80% 29.87 in 0.8 mi East 17.3 mph 26.5 mph 0.00 in Snow Light Snow
1:53 PM 24.1 °F 13.1 °F 19.0 °F 81% 29.90 in 0.5 mi East 11.5 mph 19.6 mph 0.00 in Snow Snow
2:18 PM 24.8 °F 14.0 °F 19.4 °F 80% 29.87 in 0.8 mi East 11.5 mph - 0.01 in Snow Light Snow
2:41 PM 24.8 °F 11.9 °F 19.4 °F 80% 29.85 in 0.5 mi East 16.1 mph 24.2 mph 0.01 in Snow Snow
2:53 PM 24.1 °F 11.0 °F 19.9 °F 84% 29.88 in 0.5 mi East 16.1 mph 21.9 mph 0.01 in Fog , Snow Snow
3:11 PM 24.8 °F 13.4 °F 19.4 °F 80% 29.85 in 0.8 mi East 12.7 mph 23.0 mph 0.01 in Snow Light Snow
3:25 PM 24.8 °F 13.4 °F 19.4 °F 80% 29.84 in 1.2 mi East 12.7 mph 20.7 mph 0.01 in Snow Light Snow
3:35 PM 24.8 °F 13.4 °F 19.4 °F 80% 29.84 in 1.8 mi East 12.7 mph 21.9 mph 0.01 in Rain Light Freezing Rain
3:46 PM 24.8 °F 12.4 °F 19.4 °F 80% 29.84 in 2.0 mi East 15.0 mph 23.0 mph 0.01 in Rain Light Freezing Rain
3:53 PM 24.1 °F 13.1 °F 19.9 °F 84% 29.87 in 2.0 mi East 11.5 mph 23.0 mph 0.01 in Rain Light Freezing Rain
4:51 PM 24.8 °F 15.3 °F 19.4 °F 80% 29.81 in 1.5 mi ENE 9.2 mph 19.6 mph 0.00 in Snow Light Snow
4:53 PM 24.1 °F 13.1 °F 19.9 °F 84% 29.84 in 1.2 mi East 11.5 mph 19.6 mph 0.00 in Snow Light Snow
5:10 PM 23.0 °F 13.1 °F 19.4 °F 86% 29.83 in 0.8 mi East 9.2 mph - 0.00 in Snow Light Snow
5:17 PM 23.0 °F 14.7 °F 19.4 °F 86% 29.83 in 0.5 mi East 6.9 mph - 0.00 in Fog , Snow Light Snow
5:53 PM 23.0 °F 13.9 °F 19.9 °F 88% 29.86 in 0.5 mi ENE 8.1 mph - 0.02 in Fog , Snow Light Snow
6:07 PM 23.0 °F 14.7 °F 19.4 °F 86% 29.83 in 0.8 mi ENE 6.9 mph - 0.00 in Snow Light Snow
6:17 PM 23.0 °F 14.7 °F 19.4 °F 86% 29.83 in 1.2 mi NE 6.9 mph - 0.01 in Snow Light Snow
6:37 PM 23.0 °F 13.9 °F 19.4 °F 86% 29.83 in 2.5 mi NE 8.1 mph - 0.01 in Snow Light Snow
6:46 PM 23.0 °F 13.9 °F 19.4 °F 86% 29.82 in 3.0 mi NE 8.1 mph - 0.01 in Snow Light Snow
6:53 PM 23.0 °F 13.9 °F 19.9 °F 88% 29.86 in 3.0 mi NE 8.1 mph - 0.01 in Snow Light Snow
7:37 PM 23.0 °F 14.7 °F 19.4 °F 86% 29.82 in 5.0 mi NE 6.9 mph - 0.00 in Snow Light Snow
7:53 PM 23.0 °F 14.7 °F 19.9 °F 88% 29.85 in 7.0 mi ENE 6.9 mph - 0.00 in   Overcast
8:25 PM 23.0 °F 15.8 °F 19.4 °F 86% 29.82 in 1.8 mi NE 5.8 mph - 0.01 in Snow Light Snow
8:49 PM 23.0 °F 15.8 °F 19.4 °F 86% 29.81 in 3.0 mi ENE 5.8 mph - 0.02 in Snow Light Snow
8:53 PM 23.0 °F 17.0 °F 19.9 °F 88% 29.84 in 4.0 mi NE 4.6 mph - 0.02 in Snow Light Snow
9:02 PM 23.0 °F 17.0 °F 19.4 °F 86% 29.81 in 5.0 mi NE 4.6 mph - 0.00 in Snow Light Snow
9:30 PM 24.8 °F 16.9 °F 19.4 °F 80% 29.81 in 10.0 mi NE 6.9 mph - 0.00 in   Overcast
9:53 PM 24.1 °F 17.0 °F 19.9 °F 84% 29.84 in 2.0 mi NE 5.8 mph - 0.00 in Snow Light Snow
10:06 PM 24.8 °F 19.1 °F 19.4 °F 80% 29.80 in 5.0 mi NE 4.6 mph - 0.00 in Snow Light Snow
10:53 PM 24.1 °F 19.7 °F 19.9 °F 84% 29.83 in 3.0 mi NE 3.5 mph - 0.00 in Snow Light Snow
11:06 PM 24.8 °F - 19.4 °F 80% 29.80 in 2.5 mi Calm Calm - 0.01 in Snow Light Snow
11:15 PM 24.8 °F 20.5 °F 19.4 °F 80% 29.80 in 4.0 mi North 3.5 mph - 0.01 in Snow Light Snow
11:53 PM 23.0 °F 18.4 °F 19.9 °F 88% 29.83 in 2.5 mi North 3.5 mph - 0.01 in Snow Light Snow